Time;durP1;ratioP1;P1;durP2;ratioP2;P2;SDS_P1;SDS_P2;PMS_P1;PMS_P2;Temp;Humidity;BMP_temperature;BMP_pressure;BME280_temperature;BME280_humidity;BME280_pressure;Samples;Min_cycle;Max_cycle;Signal;HPM_P1;HPM_P2
2023/05/15 00:00:13;;;;;;;11.30;8.20;;;;;;;;;;110928;1249;22136;-76
2023/05/15 00:02:59;;;;;;;13.10;9.10;;;;;;;;;;110988;1247;22615;-76
2023/05/15 00:05:25;;;;;;;11.90;9.20;;;;;;;;;;111060;1247;23155;-76
2023/05/15 00:07:51;;;;;;;11.90;9.00;;;;;;;;;;111037;1247;22360;-78
2023/05/15 00:10:18;;;;;;;12.60;9.20;;;;;;;;;;111036;1247;22244;-78
2023/05/15 00:12:44;;;;;;;11.20;8.70;;;;;;;;;;111045;1247;22312;-77
2023/05/15 00:15:10;;;;;;;11.70;9.20;;;;;;;;;;111028;1247;23088;-77
2023/05/15 00:17:37;;;;;;;16.20;9.10;;;;;;;;;;110994;1248;22265;-76
2023/05/15 00:20:04;;;;;;;16.20;11.00;;;;;;;;;;110154;1247;22618;-75
2023/05/15 00:22:30;;;;;;;19.40;11.50;;;;;;;;;;107924;1247;25343;-78
2023/05/15 00:24:58;;;;;;;14.20;9.40;;;;;;;;;;107921;1247;22524;-79
2023/05/15 00:27:25;;;;;;;11.50;9.20;;;;;;;;;;107900;1248;23855;-79
2023/05/15 00:29:51;;;;;;;13.80;8.50;;;;;;;;;;107931;1247;22544;-77
2023/05/15 00:32:18;;;;;;;17.60;9.20;;;;;;;;;;107922;1253;22534;-79
2023/05/15 00:34:44;;;;;;;12.70;9.40;;;;;;;;;;107915;1247;23246;-77
2023/05/15 00:37:10;;;;;;;15.80;10.80;;;;;;;;;;107907;1247;22521;-79
2023/05/15 00:39:37;;;;;;;16.70;10.20;;;;;;;;;;107932;1247;22651;-77
2023/05/15 00:42:03;;;;;;;14.90;9.90;;;;;;;;;;108019;1250;22563;-78
2023/05/15 00:44:30;;;;;;;14.80;9.90;;;;;;;;;;107918;1250;25261;-81
2023/05/15 00:46:56;;;;;;;16.00;10.10;;;;;;;;;;107921;1247;24306;-79
2023/05/15 00:49:23;;;;;;;17.20;10.80;;;;;;;;;;107937;1248;22861;-77
2023/05/15 00:51:49;;;;;;;19.50;11.80;;;;;;;;;;107887;1250;25204;-79
2023/05/15 00:54:15;;;;;;;14.60;10.30;;;;;;;;;;107703;1247;22558;-77
2023/05/15 00:56:42;;;;;;;15.80;10.30;;;;;;;;;;107949;1249;25348;-80
2023/05/15 00:59:08;;;;;;;15.20;9.90;;;;;;;;;;110519;1247;22545;-79
2023/05/15 01:01:35;;;;;;;14.10;9.00;;;;;;;;;;110969;1250;22331;-77
2023/05/15 01:04:01;;;;;;;13.00;9.00;;;;;;;;;;110192;1249;24279;-75
2023/05/15 01:06:30;;;;;;;13.70;8.80;;;;;;;;;;107797;1250;25340;-79
2023/05/15 01:08:57;;;;;;;;;;;;;;;;;;107762;1250;25334;-78
2023/05/15 01:11:24;;;;;;;11.80;7.80;;;;;;;;;;107757;1250;22684;-77
2023/05/15 01:13:50;;;;;;;12.30;8.50;;;;;;;;;;107789;1250;25371;-77
2023/05/15 01:16:17;;;;;;;11.20;7.70;;;;;;;;;;107690;1253;22524;-79
2023/05/15 01:18:43;;;;;;;12.70;8.40;;;;;;;;;;107712;1250;26595;-79
2023/05/15 01:21:09;;;;;;;10.60;8.00;;;;;;;;;;107764;1249;24186;-78
2023/05/15 01:23:41;;;;;;;15.20;9.30;;;;;;;;;;107759;1249;22543;-79
2023/05/15 01:26:23;;;;;;;16.70;10.60;;;;;;;;;;107739;1250;22533;-78
2023/05/15 01:28:56;;;;;;;13.40;9.30;;;;;;;;;;110029;1247;23024;-79
2023/05/15 01:31:23;;;;;;;13.90;8.60;;;;;;;;;;110798;1247;22351;-76
2023/05/15 01:33:50;;;;;;;12.60;8.40;;;;;;;;;;110994;1247;22327;-76
2023/05/15 01:36:30;;;;;;;12.80;8.50;;;;;;;;;;110836;1247;22418;-76
2023/05/15 01:38:56;;;;;;;11.90;8.30;;;;;;;;;;111057;1247;22446;-76
2023/05/15 01:41:25;;;;;;;13.50;8.60;;;;;;;;;;110762;1247;58139;-76
2023/05/15 01:43:55;;;;;;;11.60;8.00;;;;;;;;;;110210;1247;22548;-77
2023/05/15 01:46:21;;;;;;;9.60;6.70;;;;;;;;;;107900;1247;22567;-77
2023/05/15 01:48:48;;;;;;;10.30;7.90;;;;;;;;;;111028;1247;22310;-76
2023/05/15 01:51:15;;;;;;;10.50;7.60;;;;;;;;;;111033;1247;22140;-76
2023/05/15 01:53:41;;;;;;;12.10;7.20;;;;;;;;;;111007;1247;22188;-76
2023/05/15 01:56:08;;;;;;;13.30;7.60;;;;;;;;;;110851;1247;22172;-77
2023/05/15 01:58:35;;;;;;;10.70;7.30;;;;;;;;;;110828;1247;132617;-76
2023/05/15 02:01:01;;;;;;;13.20;9.40;;;;;;;;;;111047;1247;22272;-76
2023/05/15 02:03:28;;;;;;;14.70;9.30;;;;;;;;;;110822;1247;23071;-76
2023/05/15 02:05:55;;;;;;;15.60;9.70;;;;;;;;;;111030;1247;22942;-77
2023/05/15 02:08:24;;;;;;;13.40;9.00;;;;;;;;;;110996;1247;38373;-77
2023/05/15 02:10:50;;;;;;;12.40;8.70;;;;;;;;;;111020;1247;22234;-78
2023/05/15 02:13:17;;;;;;;17.80;10.20;;;;;;;;;;111016;1248;22348;-77
2023/05/15 02:15:43;;;;;;;15.30;10.70;;;;;;;;;;111042;1247;22261;-78
2023/05/15 02:18:10;;;;;;;12.40;8.60;;;;;;;;;;110982;1247;22236;-77
2023/05/15 02:20:36;;;;;;;14.10;10.70;;;;;;;;;;111055;1247;23062;-77
2023/05/15 02:23:02;;;;;;;12.80;9.00;;;;;;;;;;110766;1247;22230;-76
2023/05/15 02:25:32;;;;;;;13.00;10.00;;;;;;;;;;110974;1247;22132;-76
2023/05/15 02:27:59;;;;;;;16.70;10.70;;;;;;;;;;110802;1247;22355;-76
2023/05/15 02:30:41;;;;;;;15.40;11.00;;;;;;;;;;111015;1247;22235;-78
2023/05/15 02:33:34;;;;;;;15.20;11.00;;;;;;;;;;110818;1247;22270;-77
2023/05/15 02:36:19;;;;;;;16.60;10.60;;;;;;;;;;111005;1247;22516;-76
2023/05/15 02:38:46;;;;;;;15.00;10.30;;;;;;;;;;111040;1247;22188;-78
2023/05/15 02:41:12;;;;;;;15.60;9.30;;;;;;;;;;111000;1247;22411;-77
2023/05/15 02:43:38;;;;;;;13.30;9.40;;;;;;;;;;110892;1247;23005;-78
2023/05/15 02:46:06;;;;;;;14.90;9.40;;;;;;;;;;107920;1248;25252;-79
2023/05/15 02:48:33;;;;;;;15.10;8.60;;;;;;;;;;107646;1247;44255;-77
2023/05/15 02:50:59;;;;;;;10.90;8.70;;;;;;;;;;107897;1247;24221;-79
2023/05/15 02:53:25;;;;;;;12.70;9.10;;;;;;;;;;107936;1247;44223;-78
2023/05/15 02:55:52;;;;;;;12.70;9.60;;;;;;;;;;107961;1247;22869;-77
2023/05/15 02:58:18;;;;;;;14.90;10.30;;;;;;;;;;107783;1252;25256;-77
2023/05/15 03:00:44;;;;;;;12.00;9.20;;;;;;;;;;107726;1250;24246;-80
2023/05/15 03:03:11;;;;;;;12.60;10.00;;;;;;;;;;107916;1247;22517;-79
2023/05/15 03:05:38;;;;;;;13.80;9.90;;;;;;;;;;107877;1247;25330;-79
2023/05/15 03:08:04;;;;;;;13.00;10.50;;;;;;;;;;107895;1247;25331;-77
2023/05/15 03:10:31;;;;;;;16.10;10.40;;;;;;;;;;107899;1247;25346;-77
2023/05/15 03:12:57;;;;;;;15.60;11.90;;;;;;;;;;108049;1247;23671;-78
2023/05/15 03:15:23;;;;;;;12.00;8.80;;;;;;;;;;111010;1247;22320;-77
2023/05/15 03:17:50;;;;;;;12.50;9.10;;;;;;;;;;108281;1247;24353;-79
2023/05/15 03:20:16;;;;;;;16.80;9.90;;;;;;;;;;108434;1247;22524;-77
2023/05/15 03:22:43;;;;;;;10.20;8.20;;;;;;;;;;110975;1247;22984;-77
2023/05/15 03:25:09;;;;;;;11.20;7.60;;;;;;;;;;111082;1247;22337;-79
2023/05/15 03:27:36;;;;;;;10.60;8.70;;;;;;;;;;107904;1250;24219;-78
2023/05/15 03:30:03;;;;;;;12.80;9.80;;;;;;;;;;107887;1247;22540;-77
2023/05/15 03:32:29;;;;;;;11.30;8.90;;;;;;;;;;107886;1247;22584;-77
2023/05/15 03:34:56;;;;;;;13.30;7.90;;;;;;;;;;107908;1247;23016;-78
2023/05/15 03:37:22;;;;;;;10.30;7.90;;;;;;;;;;107902;1247;24152;-78
2023/05/15 03:39:48;;;;;;;12.50;8.10;;;;;;;;;;107943;1248;22744;-77
2023/05/15 03:42:21;;;;;;;14.70;9.30;;;;;;;;;;107914;1248;23035;-77
2023/05/15 03:44:48;;;;;;;12.60;9.20;;;;;;;;;;107937;1248;25239;-79
2023/05/15 03:47:14;;;;;;;10.10;8.10;;;;;;;;;;107687;1247;22533;-79
2023/05/15 03:49:41;;;;;;;9.40;6.80;;;;;;;;;;107844;1247;22538;-77
2023/05/15 03:52:07;;;;;;;9.50;6.40;;;;;;;;;;107799;1248;61167;-78
2023/05/15 03:54:34;;;;;;;9.80;7.30;;;;;;;;;;107824;1248;57727;-77
2023/05/15 03:57:00;;;;;;;12.00;7.40;;;;;;;;;;107837;1251;22909;-77
2023/05/15 03:59:26;;;;;;;9.10;6.10;;;;;;;;;;107689;1250;24287;-77
2023/05/15 04:01:53;;;;;;;9.50;6.80;;;;;;;;;;107741;1247;25454;-78
2023/05/15 04:04:19;;;;;;;9.20;6.80;;;;;;;;;;107912;1248;22514;-79
2023/05/15 04:06:45;;;;;;;9.80;7.30;;;;;;;;;;107877;1247;22586;-76
2023/05/15 04:09:11;;;;;;;8.70;7.00;;;;;;;;;;107914;1252;22541;-77
2023/05/15 04:11:38;;;;;;;9.20;7.40;;;;;;;;;;107894;1247;25386;-78
2023/05/15 04:14:04;;;;;;;10.60;7.70;;;;;;;;;;107840;1247;57008;-77
2023/05/15 04:16:31;;;;;;;9.90;7.20;;;;;;;;;;107916;1250;25324;-78
2023/05/15 04:18:57;;;;;;;12.30;8.90;;;;;;;;;;107871;1247;22523;-79
2023/05/15 04:21:24;;;;;;;11.00;8.10;;;;;;;;;;107833;1247;22515;-78
2023/05/15 04:23:50;;;;;;;11.70;8.10;;;;;;;;;;107836;1247;22716;-77
2023/05/15 04:26:17;;;;;;;11.30;8.20;;;;;;;;;;107916;1248;22538;-77
2023/05/15 04:28:43;;;;;;;12.10;8.70;;;;;;;;;;107901;1247;25272;-77
2023/05/15 04:31:10;;;;;;;12.00;9.30;;;;;;;;;;107902;1252;22567;-77
2023/05/15 04:33:38;;;;;;;11.50;8.10;;;;;;;;;;107828;1247;25395;-79
2023/05/15 04:36:05;;;;;;;13.60;10.40;;;;;;;;;;107901;1247;23140;-77
2023/05/15 04:38:32;;;;;;;13.60;10.40;;;;;;;;;;107872;1252;22515;-77
2023/05/15 04:40:58;;;;;;;21.50;13.50;;;;;;;;;;107867;1248;24611;-78
2023/05/15 04:43:24;;;;;;;20.90;14.50;;;;;;;;;;107897;1248;22529;-77
2023/05/15 04:45:51;;;;;;;19.10;13.50;;;;;;;;;;107885;1252;22559;-78
2023/05/15 04:48:18;;;;;;;23.40;15.40;;;;;;;;;;107870;1247;25344;-77
2023/05/15 04:50:44;;;;;;;24.10;17.20;;;;;;;;;;107890;1247;25312;-77
2023/05/15 04:53:10;;;;;;;25.40;20.30;;;;;;;;;;107891;1247;24221;-77
2023/05/15 04:55:37;;;;;;;27.20;19.00;;;;;;;;;;107824;1253;25411;-79
2023/05/15 04:58:03;;;;;;;33.90;24.70;;;;;;;;;;107850;1250;22537;-77
2023/05/15 05:00:29;;;;;;;25.30;16.70;;;;;;;;;;107906;1248;23512;-77
2023/05/15 05:02:56;;;;;;;23.20;16.60;;;;;;;;;;107764;1251;22517;-77
2023/05/15 05:05:22;;;;;;;39.80;23.40;;;;;;;;;;107726;1250;22608;-77
2023/05/15 05:07:50;;;;;;;59.20;30.70;;;;;;;;;;107800;1247;25318;-78
2023/05/15 05:10:17;;;;;;;56.80;31.30;;;;;;;;;;107910;1247;25903;-77
2023/05/15 05:12:43;;;;;;;42.30;25.10;;;;;;;;;;107859;1247;23016;-78
2023/05/15 05:15:09;;;;;;;31.30;20.40;;;;;;;;;;107903;1247;22519;-79
2023/05/15 05:17:36;;;;;;;27.00;18.40;;;;;;;;;;107877;1247;24177;-77
2023/05/15 05:20:03;;;;;;;27.40;18.40;;;;;;;;;;107843;1252;22508;-77
2023/05/15 05:22:30;;;;;;;27.10;19.10;;;;;;;;;;107862;1247;23092;-78
2023/05/15 05:24:56;;;;;;;24.40;17.50;;;;;;;;;;107885;1252;22635;-77
2023/05/15 05:27:22;;;;;;;22.40;17.10;;;;;;;;;;107811;1247;26296;-79
2023/05/15 05:29:49;;;;;;;22.00;15.70;;;;;;;;;;107851;1252;22517;-78
2023/05/15 05:32:15;;;;;;;20.30;14.40;;;;;;;;;;107895;1247;22521;-78
2023/05/15 05:34:41;;;;;;;20.00;14.50;;;;;;;;;;107918;1247;22593;-80
2023/05/15 05:37:08;;;;;;;18.60;13.50;;;;;;;;;;107920;1247;25489;-78
2023/05/15 05:39:34;;;;;;;17.00;11.60;;;;;;;;;;107824;1247;22586;-78
2023/05/15 05:42:00;;;;;;;16.10;11.50;;;;;;;;;;107748;1250;24126;-79
2023/05/15 05:44:27;;;;;;;15.10;10.90;;;;;;;;;;107912;1247;25894;-78
2023/05/15 05:46:53;;;;;;;13.30;9.90;;;;;;;;;;108145;1248;22536;-78
2023/05/15 05:49:19;;;;;;;13.70;10.60;;;;;;;;;;107948;1248;60857;-79
2023/05/15 05:51:46;;;;;;;12.70;9.80;;;;;;;;;;107947;1248;24180;-79
2023/05/15 05:54:13;;;;;;;12.90;8.60;;;;;;;;;;108277;1247;22570;-78
2023/05/15 05:56:41;;;;;;;11.40;9.30;;;;;;;;;;108030;1247;58471;-79
2023/05/15 05:59:07;;;;;;;13.40;9.90;;;;;;;;;;108144;1247;24241;-78
2023/05/15 06:01:34;;;;;;;11.60;9.10;;;;;;;;;;108197;1253;22585;-79
2023/05/15 06:04:00;;;;;;;15.70;10.60;;;;;;;;;;108342;1248;22538;-78
2023/05/15 06:06:27;;;;;;;16.80;11.80;;;;;;;;;;108224;1248;56582;-78
2023/05/15 06:08:54;;;;;;;14.50;11.50;;;;;;;;;;107993;1248;24368;-79
2023/05/15 06:11:20;;;;;;;16.00;11.10;;;;;;;;;;107966;1247;23254;-78
2023/05/15 06:13:46;;;;;;;14.00;11.00;;;;;;;;;;108018;1247;22536;-79
2023/05/15 06:16:13;;;;;;;12.00;10.20;;;;;;;;;;108118;1247;22526;-78
2023/05/15 06:18:39;;;;;;;12.00;9.90;;;;;;;;;;108298;1247;22536;-78
2023/05/15 06:21:05;;;;;;;11.60;9.30;;;;;;;;;;108173;1253;22534;-78
2023/05/15 06:23:32;;;;;;;11.00;8.60;;;;;;;;;;108535;1251;22532;-80
2023/05/15 06:25:58;;;;;;;10.70;8.20;;;;;;;;;;108596;1248;26471;-78
2023/05/15 06:28:25;;;;;;;11.50;7.70;;;;;;;;;;108309;1247;22560;-78
2023/05/15 06:30:51;;;;;;;9.50;7.40;;;;;;;;;;108299;1248;25229;-77
2023/05/15 06:33:18;;;;;;;10.70;7.00;;;;;;;;;;108308;1248;22523;-76
2023/05/15 06:35:44;;;;;;;11.30;8.90;;;;;;;;;;108505;1252;23025;-76
2023/05/15 06:38:10;;;;;;;42.90;17.10;;;;;;;;;;108543;1248;25281;-76
2023/05/15 06:40:37;;;;;;;51.20;21.80;;;;;;;;;;108269;1248;22508;-78
2023/05/15 06:43:03;;;;;;;42.10;18.20;;;;;;;;;;108063;1248;22533;-77
2023/05/15 06:45:30;;;;;;;18.20;10.00;;;;;;;;;;108043;1248;22530;-76
2023/05/15 06:47:56;;;;;;;14.00;8.40;;;;;;;;;;108057;1251;22869;-76
2023/05/15 06:50:22;;;;;;;13.70;7.90;;;;;;;;;;108631;1247;22384;-77
2023/05/15 06:52:49;;;;;;;18.50;8.20;;;;;;;;;;110783;1247;23141;-78
2023/05/15 06:55:15;;;;;;;29.70;11.90;;;;;;;;;;110834;1247;22306;-78
2023/05/15 06:57:42;;;;;;;18.40;9.10;;;;;;;;;;108845;1247;23967;-78
2023/05/15 07:00:08;;;;;;;38.60;16.10;;;;;;;;;;108509;1248;25723;-76
2023/05/15 07:02:35;;;;;;;25.10;12.90;;;;;;;;;;108325;1247;23859;-76
2023/05/15 07:05:02;;;;;;;8.80;6.20;;;;;;;;;;108185;1248;22522;-78
2023/05/15 07:07:28;;;;;;;7.60;5.90;;;;;;;;;;107883;1247;23015;-77
2023/05/15 07:09:54;;;;;;;7.80;6.10;;;;;;;;;;107988;1247;22518;-76
2023/05/15 07:12:20;;;;;;;7.00;5.80;;;;;;;;;;108032;1247;24183;-78
2023/05/15 07:14:47;;;;;;;6.90;5.30;;;;;;;;;;108443;1247;22559;-78
2023/05/15 07:17:13;;;;;;;7.80;5.50;;;;;;;;;;108555;1248;24236;-77
2023/05/15 07:19:39;;;;;;;7.50;5.60;;;;;;;;;;110005;1248;22936;-77
2023/05/15 07:22:06;;;;;;;7.90;5.80;;;;;;;;;;110933;1248;22353;-77
2023/05/15 07:24:33;;;;;;;6.60;5.80;;;;;;;;;;110695;1248;22320;-78
2023/05/15 07:26:59;;;;;;;8.20;6.50;;;;;;;;;;110878;1248;23278;-78
2023/05/15 07:29:25;;;;;;;9.80;6.40;;;;;;;;;;110715;1247;22532;-78
2023/05/15 07:31:52;;;;;;;7.20;5.50;;;;;;;;;;108009;1247;24233;-78
2023/05/15 07:34:18;;;;;;;7.60;6.80;;;;;;;;;;107998;1248;25314;-78
2023/05/15 07:36:44;;;;;;;7.70;6.10;;;;;;;;;;108454;1248;23169;-76
2023/05/15 07:39:11;;;;;;;10.20;8.20;;;;;;;;;;108342;1248;23811;-77
2023/05/15 07:41:37;;;;;;;9.30;7.50;;;;;;;;;;108311;1248;22523;-76
2023/05/15 07:44:03;;;;;;;12.90;9.20;;;;;;;;;;108314;1248;22518;-79
2023/05/15 07:46:30;;;;;;;10.20;8.40;;;;;;;;;;108497;1247;22588;-77
2023/05/15 07:48:56;;;;;;;11.20;8.70;;;;;;;;;;108449;1248;22569;-77
2023/05/15 07:51:22;;;;;;;11.50;8.50;;;;;;;;;;108367;1248;23113;-77
2023/05/15 07:53:49;;;;;;;10.40;8.30;;;;;;;;;;108398;1247;24215;-78
2023/05/15 07:56:15;;;;;;;9.90;6.80;;;;;;;;;;108087;1248;24274;-77
2023/05/15 07:58:41;;;;;;;8.00;5.30;;;;;;;;;;108068;1250;22527;-79
2023/05/15 08:01:08;;;;;;;5.20;4.60;;;;;;;;;;108088;1251;22596;-79
2023/05/15 08:03:34;;;;;;;15.10;8.00;;;;;;;;;;108547;1247;22581;-77
2023/05/15 08:06:01;;;;;;;23.20;8.80;;;;;;;;;;108454;1252;22526;-77
2023/05/15 08:08:27;;;;;;;13.40;8.30;;;;;;;;;;108182;1250;22560;-79
2023/05/15 08:10:53;;;;;;;11.50;6.30;;;;;;;;;;108128;1248;22562;-78
2023/05/15 08:13:19;;;;;;;4.90;3.90;;;;;;;;;;108227;1251;22565;-79
2023/05/15 08:15:46;;;;;;;8.80;5.30;;;;;;;;;;108372;1251;23209;-78
2023/05/15 08:18:12;;;;;;;11.10;5.50;;;;;;;;;;108382;1251;22963;-79
2023/05/15 08:20:38;;;;;;;9.20;6.10;;;;;;;;;;108883;1252;22899;-79
2023/05/15 08:23:05;;;;;;;7.90;5.50;;;;;;;;;;108555;1248;22743;-79
2023/05/15 08:25:31;;;;;;;15.50;9.70;;;;;;;;;;108346;1247;24365;-79
2023/05/15 08:27:57;;;;;;;5.40;4.90;;;;;;;;;;108289;1253;22692;-79
2023/05/15 08:30:24;;;;;;;7.80;4.30;;;;;;;;;;108209;1247;22609;-79
2023/05/15 08:32:50;;;;;;;5.20;4.00;;;;;;;;;;108350;1248;22953;-78
2023/05/15 08:35:17;;;;;;;5.40;4.40;;;;;;;;;;108075;1248;24268;-78
2023/05/15 08:37:43;;;;;;;7.20;4.40;;;;;;;;;;108066;1253;22515;-78
2023/05/15 08:40:09;;;;;;;6.40;4.50;;;;;;;;;;108012;1247;22515;-78
2023/05/15 08:42:42;;;;;;;7.60;4.70;;;;;;;;;;107836;1247;22569;-77
2023/05/15 08:45:08;;;;;;;4.90;4.00;;;;;;;;;;108076;1247;22514;-79
2023/05/15 08:47:37;;;;;;;10.60;4.80;;;;;;;;;;108261;1247;24244;-79
2023/05/15 08:50:11;;;;;;;5.50;4.80;;;;;;;;;;108107;1252;22554;-78
2023/05/15 08:52:37;;;;;;;5.70;4.40;;;;;;;;;;108363;1248;36719;-79
2023/05/15 08:55:04;;;;;;;6.20;4.10;;;;;;;;;;108079;1250;26028;-78
2023/05/15 08:57:31;;;;;;;5.40;3.70;;;;;;;;;;108272;1248;22629;-79
2023/05/15 08:59:57;;;;;;;6.90;3.60;;;;;;;;;;107998;1253;22505;-78
2023/05/15 09:02:24;;;;;;;6.20;3.70;;;;;;;;;;108577;1248;22550;-78
2023/05/15 09:04:51;;;;;;;4.80;3.40;;;;;;;;;;108250;1248;22646;-79
2023/05/15 09:07:17;;;;;;;6.10;3.50;;;;;;;;;;108393;1253;22531;-80
2023/05/15 09:09:43;;;;;;;8.90;3.50;;;;;;;;;;108456;1248;22605;-79
2023/05/15 09:12:10;;;;;;;4.60;3.60;;;;;;;;;;108481;1248;25282;-78
2023/05/15 09:14:36;;;;;;;4.30;2.90;;;;;;;;;;108409;1248;22583;-80
2023/05/15 09:17:03;;;;;;;3.70;2.80;;;;;;;;;;107921;1248;22525;-78
2023/05/15 09:19:29;;;;;;;32.90;28.30;;;;;;;;;;107903;1253;25517;-79
2023/05/15 09:21:56;;;;;;;10.20;7.50;;;;;;;;;;108088;1248;22518;-79
2023/05/15 09:24:23;;;;;;;3.50;2.80;;;;;;;;;;108198;1248;23453;-79
2023/05/15 09:27:01;;;;;;;4.50;2.70;;;;;;;;;;108561;1247;23003;-78
2023/05/15 09:29:30;;;;;;;3.90;3.10;;;;;;;;;;109573;1253;23258;-79
2023/05/15 09:31:56;;;;;;;4.00;3.00;;;;;;;;;;108207;1248;24241;-78
2023/05/15 09:34:29;;;;;;;3.60;2.90;;;;;;;;;;108199;1251;25390;-78
2023/05/15 09:36:56;;;;;;;5.40;2.90;;;;;;;;;;107947;1253;22581;-79
2023/05/15 09:39:22;;;;;;;5.10;3.30;;;;;;;;;;108326;1252;22554;-78
2023/05/15 09:41:48;;;;;;;7.00;3.60;;;;;;;;;;108359;1253;22534;-80
2023/05/15 09:44:18;;;;;;;6.00;4.60;;;;;;;;;;108284;1247;24187;-78
2023/05/15 09:47:03;;;;;;;5.90;4.50;;;;;;;;;;108172;1248;25108;-78
2023/05/15 09:49:30;;;;;;;7.10;4.30;;;;;;;;;;108406;1253;22555;-80
2023/05/15 09:51:57;;;;;;;8.00;3.80;;;;;;;;;;108026;1250;25485;-78
2023/05/15 09:54:24;;;;;;;8.10;5.90;;;;;;;;;;108147;1248;22740;-79
2023/05/15 09:56:50;;;;;;;9.20;5.60;;;;;;;;;;110931;1247;22438;-80
2023/05/15 09:59:17;;;;;;;10.30;7.90;;;;;;;;;;108559;1248;22576;-80
2023/05/15 10:01:44;;;;;;;9.80;6.70;;;;;;;;;;108323;1253;22535;-79
2023/05/15 10:04:11;;;;;;;5.20;4.30;;;;;;;;;;108322;1248;22514;-80
2023/05/15 10:06:38;;;;;;;5.60;4.00;;;;;;;;;;108524;1252;22556;-78
2023/05/15 10:09:05;;;;;;;5.60;4.00;;;;;;;;;;108302;1251;22514;-79
2023/05/15 10:11:34;;;;;;;5.20;3.70;;;;;;;;;;108151;1249;22532;-78
2023/05/15 10:14:01;;;;;;;5.10;3.90;;;;;;;;;;107888;1252;23210;-78
2023/05/15 10:16:28;;;;;;;4.90;3.40;;;;;;;;;;107915;1248;22942;-79
2023/05/15 10:18:54;;;;;;;3.90;3.50;;;;;;;;;;107913;1254;22601;-80
2023/05/15 10:21:21;;;;;;;6.20;3.40;;;;;;;;;;108293;1253;22553;-78
2023/05/15 10:23:49;;;;;;;4.80;3.60;;;;;;;;;;108249;1253;25310;-79
2023/05/15 10:26:38;;;;;;;5.10;3.40;;;;;;;;;;107761;1253;22627;-78
2023/05/15 10:29:07;;;;;;;6.80;4.70;;;;;;;;;;107964;1251;22953;-78
2023/05/15 10:31:34;;;;;;;5.30;4.30;;;;;;;;;;107863;1253;22526;-78
2023/05/15 10:34:01;;;;;;;4.10;3.30;;;;;;;;;;108019;1248;22532;-78
2023/05/15 10:36:28;;;;;;;4.10;3.30;;;;;;;;;;107938;1252;25947;-78
2023/05/15 10:38:54;;;;;;;5.10;3.50;;;;;;;;;;108290;1248;23728;-79
2023/05/15 10:41:21;;;;;;;4.90;3.10;;;;;;;;;;107952;1253;25271;-77
2023/05/15 10:43:48;;;;;;;5.70;3.10;;;;;;;;;;107858;1247;22524;-77
2023/05/15 10:46:15;;;;;;;7.00;3.40;;;;;;;;;;108297;1247;22511;-77
2023/05/15 10:48:41;;;;;;;3.60;2.80;;;;;;;;;;107916;1248;22634;-79
2023/05/15 10:51:14;;;;;;;11.30;3.50;;;;;;;;;;107829;1247;24207;-77
2023/05/15 10:53:41;;;;;;;7.40;3.30;;;;;;;;;;107632;1251;22551;-78
2023/05/15 10:56:12;;;;;;;3.90;2.60;;;;;;;;;;107638;1251;24275;-79
2023/05/15 10:58:38;;;;;;;7.80;4.10;;;;;;;;;;107762;1253;25274;-79
2023/05/15 11:01:05;;;;;;;2.80;2.30;;;;;;;;;;107892;1248;22527;-78
2023/05/15 11:03:38;;;;;;;5.40;2.70;;;;;;;;;;107913;1254;23433;-78
2023/05/15 11:06:08;;;;;;;4.00;2.40;;;;;;;;;;108215;1251;23740;-78
2023/05/15 11:08:35;;;;;;;3.80;2.80;;;;;;;;;;108355;1247;22539;-77
2023/05/15 11:11:02;;;;;;;3.10;2.60;;;;;;;;;;108119;1253;27549;-77
2023/05/15 11:13:48;;;;;;;3.50;2.80;;;;;;;;;;107843;1251;24246;-77
2023/05/15 11:16:34;;;;;;;8.00;2.80;;;;;;;;;;107957;1253;22537;-80
2023/05/15 11:19:00;;;;;;;7.50;6.80;;;;;;;;;;108019;1248;25440;-79
2023/05/15 11:21:31;;;;;;;3.60;2.80;;;;;;;;;;108404;1252;22580;-79
2023/05/15 11:24:02;;;;;;;4.40;2.60;;;;;;;;;;108392;1247;23260;-77
2023/05/15 11:26:31;;;;;;;2.70;2.20;;;;;;;;;;108103;1248;23335;-79
2023/05/15 11:28:58;;;;;;;6.10;3.60;;;;;;;;;;108074;1247;24376;-80
2023/05/15 11:31:28;;;;;;;11.10;4.50;;;;;;;;;;108039;1247;26465;-77
2023/05/15 11:33:54;;;;;;;4.60;2.30;;;;;;;;;;108110;1248;22536;-78
2023/05/15 11:36:22;;;;;;;3.50;2.50;;;;;;;;;;107880;1254;24205;-80
2023/05/15 11:38:49;;;;;;;4.20;2.30;;;;;;;;;;108018;1254;22516;-80
2023/05/15 11:41:18;;;;;;;8.40;2.30;;;;;;;;;;108232;1248;25499;-79
2023/05/15 11:43:45;;;;;;;7.10;3.40;;;;;;;;;;107832;1254;24462;-78
2023/05/15 11:46:13;;;;;;;3.40;2.60;;;;;;;;;;107868;1252;25281;-80
2023/05/15 11:48:40;;;;;;;3.30;2.30;;;;;;;;;;108299;1248;22959;-78
2023/05/15 11:51:13;;;;;;;3.50;2.30;;;;;;;;;;107756;1248;24225;-79
2023/05/15 11:53:39;;;;;;;7.20;2.70;;;;;;;;;;108269;1248;25356;-79
2023/05/15 11:56:06;;;;;;;15.20;2.80;;;;;;;;;;108245;1253;22539;-78
2023/05/15 11:58:32;;;;;;;5.90;1.70;;;;;;;;;;108239;1253;22982;-79
2023/05/15 12:00:59;;;;;;;6.40;2.10;;;;;;;;;;108317;1248;22540;-79
2023/05/15 12:03:26;;;;;;;3.20;2.30;;;;;;;;;;107820;1253;24236;-79
2023/05/15 12:05:52;;;;;;;5.50;2.50;;;;;;;;;;107915;1247;22632;-80
2023/05/15 12:08:20;;;;;;;3.40;2.50;;;;;;;;;;107765;1255;22536;-80
2023/05/15 12:10:46;;;;;;;3.40;2.50;;;;;;;;;;107912;1253;25407;-79
2023/05/15 12:13:13;;;;;;;3.30;2.20;;;;;;;;;;107803;1248;22530;-80
2023/05/15 12:15:40;;;;;;;7.00;2.20;;;;;;;;;;107998;1253;22530;-78
2023/05/15 12:18:07;;;;;;;3.10;1.90;;;;;;;;;;108333;1247;24196;-78
2023/05/15 12:20:34;;;;;;;3.20;2.20;;;;;;;;;;107920;1248;25268;-78
2023/05/15 12:23:02;;;;;;;5.50;2.70;;;;;;;;;;107967;1253;22956;-80
2023/05/15 12:25:29;;;;;;;;;;;;;;;;;;108031;1248;22515;-78
2023/05/15 12:27:55;;;;;;;3.40;2.70;;;;;;;;;;108045;1251;22527;-78
2023/05/15 12:30:22;;;;;;;5.10;2.50;;;;;;;;;;107808;1253;22525;-78
2023/05/15 12:32:48;;;;;;;5.90;2.30;;;;;;;;;;108022;1248;22997;-79
2023/05/15 12:35:14;;;;;;;5.40;2.70;;;;;;;;;;107934;1247;23006;-80
2023/05/15 12:37:41;;;;;;;5.30;3.50;;;;;;;;;;107886;1248;22560;-79
2023/05/15 12:40:10;;;;;;;3.70;3.00;;;;;;;;;;107764;1254;22522;-78
2023/05/15 12:42:44;;;;;;;5.60;3.20;;;;;;;;;;108168;1248;22528;-78
2023/05/15 12:45:11;;;;;;;7.00;3.40;;;;;;;;;;110744;1248;22371;-78
2023/05/15 12:47:37;;;;;;;9.10;3.10;;;;;;;;;;110282;1253;24244;-80
2023/05/15 12:50:16;;;;;;;3.50;2.60;;;;;;;;;;107654;1253;22517;-78
2023/05/15 12:52:48;;;;;;;3.50;2.80;;;;;;;;;;107756;1248;24215;-77
2023/05/15 12:55:21;;;;;;;3.60;2.60;;;;;;;;;;107935;1253;22525;-77
2023/05/15 12:57:47;;;;;;;4.00;2.80;;;;;;;;;;107789;1254;22552;-80
2023/05/15 13:00:14;;;;;;;4.70;2.00;;;;;;;;;;107869;1247;22518;-77
2023/05/15 13:02:42;;;;;;;1.00;0.80;;;;;;;;;;107841;1254;22653;-78
2023/05/15 13:05:08;;;;;;;1.90;1.40;;;;;;;;;;107914;1249;24221;-80
2023/05/15 13:07:35;;;;;;;2.60;1.40;;;;;;;;;;108003;1248;22518;-81
2023/05/15 13:10:04;;;;;;;2.80;1.70;;;;;;;;;;107868;1247;26350;-80
2023/05/15 13:12:38;;;;;;;4.00;1.40;;;;;;;;;;107758;1248;24267;-79
2023/05/15 13:15:05;;;;;;;3.80;1.00;;;;;;;;;;107858;1247;23738;-78
2023/05/15 13:17:32;;;;;;;5.30;1.30;;;;;;;;;;108363;1248;23204;-78
2023/05/15 13:19:58;;;;;;;5.00;1.40;;;;;;;;;;108413;1247;22563;-78
2023/05/15 13:22:24;;;;;;;4.30;1.00;;;;;;;;;;108460;1248;22524;-79
2023/05/15 13:24:51;;;;;;;2.30;1.30;;;;;;;;;;108265;1248;25331;-78
2023/05/15 13:27:18;;;;;;;1.40;0.70;;;;;;;;;;108312;1248;22521;-79
2023/05/15 13:29:44;;;;;;;3.60;2.20;;;;;;;;;;108172;1248;22835;-79
2023/05/15 13:32:10;;;;;;;7.90;2.30;;;;;;;;;;108303;1248;22553;-80
2023/05/15 13:34:36;;;;;;;3.30;1.60;;;;;;;;;;107926;1247;24203;-79
2023/05/15 13:37:03;;;;;;;4.60;1.70;;;;;;;;;;108403;1248;22574;-81
2023/05/15 13:39:29;;;;;;;6.30;3.10;;;;;;;;;;108509;1248;25203;-79
2023/05/15 13:41:57;;;;;;;4.30;2.80;;;;;;;;;;107880;1252;22935;-78
2023/05/15 13:44:23;;;;;;;2.40;1.50;;;;;;;;;;107868;1247;22548;-78
2023/05/15 13:46:49;;;;;;;1.80;1.30;;;;;;;;;;108117;1248;25360;-80
2023/05/15 13:49:16;;;;;;;1.80;1.30;;;;;;;;;;108357;1247;23288;-78
2023/05/15 13:51:42;;;;;;;3.60;1.20;;;;;;;;;;108016;1247;22653;-78
2023/05/15 13:54:08;;;;;;;2.10;1.60;;;;;;;;;;107948;1251;22528;-81
2023/05/15 13:56:35;;;;;;;1.60;0.90;;;;;;;;;;107824;1247;22532;-78
2023/05/15 13:59:01;;;;;;;2.60;1.00;;;;;;;;;;107689;1248;134557;-80
2023/05/15 14:01:27;;;;;;;4.60;1.40;;;;;;;;;;107783;1248;22559;-78
2023/05/15 14:03:54;;;;;;;3.00;1.00;;;;;;;;;;107777;1247;22620;-78
2023/05/15 14:06:20;;;;;;;1.10;0.70;;;;;;;;;;107765;1252;24889;-81
2023/05/15 14:08:47;;;;;;;2.80;0.90;;;;;;;;;;107795;1253;22640;-81
2023/05/15 14:11:13;;;;;;;1.30;0.70;;;;;;;;;;107887;1248;22530;-78
2023/05/15 14:13:41;;;;;;;2.30;0.90;;;;;;;;;;107703;1251;22605;-78
2023/05/15 14:16:07;;;;;;;1.80;1.00;;;;;;;;;;107979;1251;25520;-81
2023/05/15 14:18:33;;;;;;;2.60;0.80;;;;;;;;;;107936;1251;22527;-78
2023/05/15 14:21:00;;;;;;;2.10;1.00;;;;;;;;;;108071;1248;25297;-80